sensor_id;sensor_type;location;lat;lon;timestamp;P1;durP1;ratioP1;P2;durP2;ratioP2
7193;SDS011;3638;48.820;9.244;2023-03-23T00:01:15;4.30;;;2.85;;
7193;SDS011;3638;48.820;9.244;2023-03-23T00:03:45;4.70;;;3.00;;
7193;SDS011;3638;48.820;9.244;2023-03-23T00:06:14;6.40;;;3.20;;
7193;SDS011;3638;48.820;9.244;2023-03-23T00:08:43;4.37;;;2.70;;
7193;SDS011;3638;48.820;9.244;2023-03-23T00:11:11;3.80;;;2.67;;
7193;SDS011;3638;48.820;9.244;2023-03-23T00:13:39;3.07;;;2.60;;
7193;SDS011;3638;48.820;9.244;2023-03-23T00:16:07;4.50;;;2.90;;
7193;SDS011;3638;48.820;9.244;2023-03-23T00:18:43;3.57;;;2.90;;
7193;SDS011;3638;48.820;9.244;2023-03-23T00:21:10;4.57;;;2.97;;
7193;SDS011;3638;48.820;9.244;2023-03-23T00:23:37;5.57;;;3.47;;
7193;SDS011;3638;48.820;9.244;2023-03-23T00:26:05;4.83;;;3.13;;
7193;SDS011;3638;48.820;9.244;2023-03-23T00:28:33;5.60;;;3.00;;
7193;SDS011;3638;48.820;9.244;2023-03-23T00:31:00;5.37;;;3.57;;
7193;SDS011;3638;48.820;9.244;2023-03-23T00:33:31;5.03;;;3.53;;
7193;SDS011;3638;48.820;9.244;2023-03-23T00:36:04;5.20;;;3.40;;
7193;SDS011;3638;48.820;9.244;2023-03-23T00:38:33;4.00;;;3.43;;
7193;SDS011;3638;48.820;9.244;2023-03-23T00:41:01;6.50;;;3.10;;
7193;SDS011;3638;48.820;9.244;2023-03-23T00:43:29;5.57;;;3.30;;
7193;SDS011;3638;48.820;9.244;2023-03-23T00:46:00;4.47;;;3.33;;
7193;SDS011;3638;48.820;9.244;2023-03-23T00:48:33;4.57;;;3.23;;
7193;SDS011;3638;48.820;9.244;2023-03-23T00:51:01;4.67;;;2.80;;
7193;SDS011;3638;48.820;9.244;2023-03-23T00:53:31;3.80;;;3.20;;
7193;SDS011;3638;48.820;9.244;2023-03-23T00:55:58;2.63;;;2.20;;
7193;SDS011;3638;48.820;9.244;2023-03-23T00:58:25;3.63;;;2.47;;
7193;SDS011;3638;48.820;9.244;2023-03-23T01:00:52;2.77;;;2.20;;
7193;SDS011;3638;48.820;9.244;2023-03-23T01:03:21;3.23;;;2.30;;
7193;SDS011;3638;48.820;9.244;2023-03-23T01:05:50;4.63;;;2.00;;
7193;SDS011;3638;48.820;9.244;2023-03-23T01:08:19;2.40;;;2.20;;
7193;SDS011;3638;48.820;9.244;2023-03-23T01:10:48;3.97;;;2.30;;
7193;SDS011;3638;48.820;9.244;2023-03-23T01:13:16;2.90;;;2.40;;
7193;SDS011;3638;48.820;9.244;2023-03-23T01:15:43;3.80;;;2.53;;
7193;SDS011;3638;48.820;9.244;2023-03-23T01:18:12;3.20;;;2.20;;
7193;SDS011;3638;48.820;9.244;2023-03-23T01:20:38;2.60;;;2.30;;
7193;SDS011;3638;48.820;9.244;2023-03-23T01:23:07;2.47;;;2.27;;
7193;SDS011;3638;48.820;9.244;2023-03-23T01:25:35;3.07;;;2.70;;
7193;SDS011;3638;48.820;9.244;2023-03-23T01:28:02;3.83;;;2.90;;
7193;SDS011;3638;48.820;9.244;2023-03-23T01:30:30;3.53;;;3.00;;
7193;SDS011;3638;48.820;9.244;2023-03-23T01:32:57;5.67;;;3.37;;
7193;SDS011;3638;48.820;9.244;2023-03-23T01:35:24;3.80;;;3.23;;
7193;SDS011;3638;48.820;9.244;2023-03-23T01:37:51;5.73;;;3.60;;
7193;SDS011;3638;48.820;9.244;2023-03-23T01:40:18;4.90;;;3.77;;
7193;SDS011;3638;48.820;9.244;2023-03-23T01:42:46;4.90;;;3.40;;
7193;SDS011;3638;48.820;9.244;2023-03-23T01:45:23;4.67;;;3.80;;
7193;SDS011;3638;48.820;9.244;2023-03-23T01:48:04;5.77;;;3.67;;
7193;SDS011;3638;48.820;9.244;2023-03-23T01:50:37;4.57;;;3.60;;
7193;SDS011;3638;48.820;9.244;2023-03-23T01:53:10;5.20;;;3.30;;
7193;SDS011;3638;48.820;9.244;2023-03-23T01:55:38;5.63;;;3.20;;
7193;SDS011;3638;48.820;9.244;2023-03-23T01:58:09;3.70;;;3.20;;
7193;SDS011;3638;48.820;9.244;2023-03-23T02:00:37;5.37;;;3.47;;
7193;SDS011;3638;48.820;9.244;2023-03-23T02:03:07;3.10;;;2.80;;
7193;SDS011;3638;48.820;9.244;2023-03-23T02:05:39;4.30;;;3.30;;
7193;SDS011;3638;48.820;9.244;2023-03-23T02:08:07;4.57;;;3.30;;
7193;SDS011;3638;48.820;9.244;2023-03-23T02:10:38;4.27;;;3.30;;
7193;SDS011;3638;48.820;9.244;2023-03-23T02:13:06;5.43;;;3.40;;
7193;SDS011;3638;48.820;9.244;2023-03-23T02:15:39;3.27;;;3.00;;
7193;SDS011;3638;48.820;9.244;2023-03-23T02:18:17;3.80;;;3.20;;
7193;SDS011;3638;48.820;9.244;2023-03-23T02:21:13;4.37;;;3.47;;
7193;SDS011;3638;48.820;9.244;2023-03-23T02:27:04;4.70;;;3.60;;
7193;SDS011;3638;48.820;9.244;2023-03-23T02:29:45;5.27;;;3.53;;
7193;SDS011;3638;48.820;9.244;2023-03-23T02:32:39;5.93;;;4.27;;
7193;SDS011;3638;48.820;9.244;2023-03-23T02:35:38;5.63;;;3.33;;
7193;SDS011;3638;48.820;9.244;2023-03-23T02:38:10;7.30;;;3.20;;
7193;SDS011;3638;48.820;9.244;2023-03-23T02:40:43;3.30;;;2.87;;
7193;SDS011;3638;48.820;9.244;2023-03-23T02:43:12;2.93;;;2.63;;
7193;SDS011;3638;48.820;9.244;2023-03-23T02:45:43;2.77;;;2.50;;
7193;SDS011;3638;48.820;9.244;2023-03-23T02:48:14;2.87;;;2.57;;
7193;SDS011;3638;48.820;9.244;2023-03-23T02:50:45;5.30;;;2.60;;
7193;SDS011;3638;48.820;9.244;2023-03-23T02:53:17;4.20;;;2.67;;
7193;SDS011;3638;48.820;9.244;2023-03-23T02:55:48;3.27;;;2.70;;
7193;SDS011;3638;48.820;9.244;2023-03-23T02:58:18;3.93;;;2.73;;
7193;SDS011;3638;48.820;9.244;2023-03-23T03:00:45;3.20;;;2.87;;
7193;SDS011;3638;48.820;9.244;2023-03-23T03:03:16;5.07;;;3.00;;
7193;SDS011;3638;48.820;9.244;2023-03-23T03:05:49;3.77;;;2.70;;
7193;SDS011;3638;48.820;9.244;2023-03-23T03:08:26;5.03;;;3.03;;
7193;SDS011;3638;48.820;9.244;2023-03-23T03:11:01;4.63;;;3.10;;
7193;SDS011;3638;48.820;9.244;2023-03-23T03:13:33;3.20;;;2.90;;
7193;SDS011;3638;48.820;9.244;2023-03-23T03:16:14;3.77;;;2.80;;
7193;SDS011;3638;48.820;9.244;2023-03-23T03:18:51;2.97;;;2.70;;
7193;SDS011;3638;48.820;9.244;2023-03-23T03:21:23;3.07;;;2.73;;
7193;SDS011;3638;48.820;9.244;2023-03-23T03:23:52;3.10;;;2.80;;
7193;SDS011;3638;48.820;9.244;2023-03-23T03:26:24;3.17;;;2.37;;
7193;SDS011;3638;48.820;9.244;2023-03-23T03:28:52;6.17;;;3.50;;
7193;SDS011;3638;48.820;9.244;2023-03-23T03:31:21;4.67;;;3.70;;
7193;SDS011;3638;48.820;9.244;2023-03-23T03:33:54;5.43;;;4.30;;
7193;SDS011;3638;48.820;9.244;2023-03-23T03:36:23;6.97;;;4.13;;
7193;SDS011;3638;48.820;9.244;2023-03-23T03:38:53;6.20;;;3.97;;
7193;SDS011;3638;48.820;9.244;2023-03-23T03:41:22;7.37;;;4.33;;
7193;SDS011;3638;48.820;9.244;2023-03-23T03:43:49;6.47;;;3.93;;
7193;SDS011;3638;48.820;9.244;2023-03-23T03:46:16;9.33;;;4.20;;
7193;SDS011;3638;48.820;9.244;2023-03-23T03:48:42;5.07;;;3.73;;
7193;SDS011;3638;48.820;9.244;2023-03-23T03:51:11;6.73;;;3.97;;
7193;SDS011;3638;48.820;9.244;2023-03-23T03:53:37;5.50;;;3.40;;
7193;SDS011;3638;48.820;9.244;2023-03-23T03:56:05;3.90;;;3.50;;
7193;SDS011;3638;48.820;9.244;2023-03-23T03:58:32;5.83;;;3.83;;
7193;SDS011;3638;48.820;9.244;2023-03-23T04:01:01;4.00;;;3.27;;
7193;SDS011;3638;48.820;9.244;2023-03-23T04:03:29;3.73;;;3.30;;
7193;SDS011;3638;48.820;9.244;2023-03-23T04:05:56;3.50;;;3.20;;
7193;SDS011;3638;48.820;9.244;2023-03-23T04:08:25;4.83;;;3.40;;
7193;SDS011;3638;48.820;9.244;2023-03-23T04:10:52;4.27;;;3.10;;
7193;SDS011;3638;48.820;9.244;2023-03-23T04:13:20;3.47;;;2.80;;
7193;SDS011;3638;48.820;9.244;2023-03-23T04:15:47;3.63;;;2.93;;
7193;SDS011;3638;48.820;9.244;2023-03-23T04:18:15;4.57;;;3.27;;
7193;SDS011;3638;48.820;9.244;2023-03-23T04:20:43;3.97;;;2.73;;
7193;SDS011;3638;48.820;9.244;2023-03-23T04:23:12;3.93;;;2.70;;
7193;SDS011;3638;48.820;9.244;2023-03-23T04:25:41;3.87;;;2.83;;
7193;SDS011;3638;48.820;9.244;2023-03-23T04:28:08;2.53;;;2.30;;
7193;SDS011;3638;48.820;9.244;2023-03-23T04:30:35;3.83;;;3.13;;
7193;SDS011;3638;48.820;9.244;2023-03-23T04:33:02;4.23;;;3.07;;
7193;SDS011;3638;48.820;9.244;2023-03-23T04:35:30;3.97;;;2.60;;
7193;SDS011;3638;48.820;9.244;2023-03-23T04:37:57;3.93;;;3.33;;
7193;SDS011;3638;48.820;9.244;2023-03-23T04:40:24;3.40;;;2.90;;
7193;SDS011;3638;48.820;9.244;2023-03-23T04:42:53;3.57;;;3.20;;
7193;SDS011;3638;48.820;9.244;2023-03-23T04:45:22;5.00;;;3.20;;
7193;SDS011;3638;48.820;9.244;2023-03-23T04:47:50;4.67;;;3.60;;
7193;SDS011;3638;48.820;9.244;2023-03-23T04:50:22;3.87;;;3.10;;
7193;SDS011;3638;48.820;9.244;2023-03-23T04:52:51;4.83;;;3.40;;
7193;SDS011;3638;48.820;9.244;2023-03-23T04:55:21;4.50;;;3.20;;
7193;SDS011;3638;48.820;9.244;2023-03-23T04:57:49;4.30;;;3.00;;
7193;SDS011;3638;48.820;9.244;2023-03-23T05:00:18;4.33;;;2.83;;
7193;SDS011;3638;48.820;9.244;2023-03-23T05:02:46;2.90;;;2.50;;
7193;SDS011;3638;48.820;9.244;2023-03-23T05:05:16;2.93;;;2.50;;
7193;SDS011;3638;48.820;9.244;2023-03-23T05:07:45;3.17;;;2.70;;
7193;SDS011;3638;48.820;9.244;2023-03-23T05:10:12;3.90;;;2.60;;
7193;SDS011;3638;48.820;9.244;2023-03-23T05:12:40;4.17;;;2.87;;
7193;SDS011;3638;48.820;9.244;2023-03-23T05:15:09;5.03;;;3.00;;
7193;SDS011;3638;48.820;9.244;2023-03-23T05:17:39;3.10;;;2.80;;
7193;SDS011;3638;48.820;9.244;2023-03-23T05:20:09;4.53;;;2.83;;
7193;SDS011;3638;48.820;9.244;2023-03-23T05:22:39;4.20;;;3.23;;
7193;SDS011;3638;48.820;9.244;2023-03-23T05:25:07;4.03;;;2.90;;
7193;SDS011;3638;48.820;9.244;2023-03-23T05:27:35;3.67;;;3.03;;
7193;SDS011;3638;48.820;9.244;2023-03-23T05:30:03;3.10;;;2.67;;
7193;SDS011;3638;48.820;9.244;2023-03-23T05:32:31;4.13;;;2.90;;
7193;SDS011;3638;48.820;9.244;2023-03-23T05:35:00;3.00;;;2.80;;
7193;SDS011;3638;48.820;9.244;2023-03-23T05:37:28;3.33;;;2.83;;
7193;SDS011;3638;48.820;9.244;2023-03-23T05:39:57;3.60;;;2.80;;
7193;SDS011;3638;48.820;9.244;2023-03-23T05:42:30;3.47;;;3.17;;
7193;SDS011;3638;48.820;9.244;2023-03-23T05:44:57;3.80;;;2.77;;
7193;SDS011;3638;48.820;9.244;2023-03-23T05:47:25;3.40;;;2.80;;
7193;SDS011;3638;48.820;9.244;2023-03-23T05:49:52;4.00;;;3.40;;
7193;SDS011;3638;48.820;9.244;2023-03-23T05:52:20;4.60;;;2.73;;
7193;SDS011;3638;48.820;9.244;2023-03-23T05:54:48;3.33;;;3.00;;
7193;SDS011;3638;48.820;9.244;2023-03-23T05:57:15;3.40;;;3.10;;
7193;SDS011;3638;48.820;9.244;2023-03-23T05:59:43;3.50;;;3.07;;
7193;SDS011;3638;48.820;9.244;2023-03-23T06:02:10;4.17;;;3.10;;
7193;SDS011;3638;48.820;9.244;2023-03-23T06:04:38;4.73;;;2.90;;
7193;SDS011;3638;48.820;9.244;2023-03-23T06:07:06;5.13;;;3.13;;
7193;SDS011;3638;48.820;9.244;2023-03-23T06:09:38;4.87;;;3.10;;
7193;SDS011;3638;48.820;9.244;2023-03-23T06:12:06;6.17;;;3.67;;
7193;SDS011;3638;48.820;9.244;2023-03-23T06:14:34;3.30;;;3.00;;
7193;SDS011;3638;48.820;9.244;2023-03-23T06:17:01;4.50;;;3.70;;
7193;SDS011;3638;48.820;9.244;2023-03-23T06:19:28;3.27;;;2.93;;
7193;SDS011;3638;48.820;9.244;2023-03-23T06:21:55;5.87;;;2.80;;
7193;SDS011;3638;48.820;9.244;2023-03-23T06:24:22;3.00;;;2.70;;
7193;SDS011;3638;48.820;9.244;2023-03-23T06:26:50;2.30;;;2.10;;
7193;SDS011;3638;48.820;9.244;2023-03-23T06:29:17;3.60;;;2.40;;
7193;SDS011;3638;48.820;9.244;2023-03-23T06:31:45;2.57;;;2.03;;
7193;SDS011;3638;48.820;9.244;2023-03-23T06:34:17;3.78;;;1.90;;
7193;SDS011;3638;48.820;9.244;2023-03-23T06:36:44;5.20;;;2.40;;
7193;SDS011;3638;48.820;9.244;2023-03-23T06:39:11;3.33;;;2.40;;
7193;SDS011;3638;48.820;9.244;2023-03-23T06:41:38;2.20;;;2.00;;
7193;SDS011;3638;48.820;9.244;2023-03-23T06:44:07;3.10;;;2.03;;
7193;SDS011;3638;48.820;9.244;2023-03-23T06:46:38;2.57;;;2.20;;
7193;SDS011;3638;48.820;9.244;2023-03-23T06:49:06;2.75;;;2.08;;
7193;SDS011;3638;48.820;9.244;2023-03-23T06:51:33;2.23;;;2.00;;
7193;SDS011;3638;48.820;9.244;2023-03-23T06:54:00;2.57;;;2.20;;
7193;SDS011;3638;48.820;9.244;2023-03-23T06:56:27;2.33;;;1.90;;
7193;SDS011;3638;48.820;9.244;2023-03-23T06:58:55;2.20;;;2.00;;
7193;SDS011;3638;48.820;9.244;2023-03-23T07:01:23;2.60;;;2.40;;
7193;SDS011;3638;48.820;9.244;2023-03-23T07:03:50;3.17;;;2.40;;
7193;SDS011;3638;48.820;9.244;2023-03-23T07:06:17;2.33;;;2.05;;
7193;SDS011;3638;48.820;9.244;2023-03-23T07:08:44;4.30;;;2.20;;
7193;SDS011;3638;48.820;9.244;2023-03-23T07:11:11;3.72;;;2.35;;
7193;SDS011;3638;48.820;9.244;2023-03-23T07:13:38;4.38;;;2.60;;
7193;SDS011;3638;48.820;9.244;2023-03-23T07:16:05;5.10;;;2.78;;
7193;SDS011;3638;48.820;9.244;2023-03-23T07:18:35;3.58;;;2.30;;
7193;SDS011;3638;48.820;9.244;2023-03-23T07:21:02;3.60;;;2.17;;
7193;SDS011;3638;48.820;9.244;2023-03-23T07:23:29;3.92;;;2.53;;
7193;SDS011;3638;48.820;9.244;2023-03-23T07:25:56;3.00;;;2.33;;
7193;SDS011;3638;48.820;9.244;2023-03-23T07:28:23;6.68;;;2.90;;
7193;SDS011;3638;48.820;9.244;2023-03-23T07:30:51;4.55;;;2.70;;
7193;SDS011;3638;48.820;9.244;2023-03-23T07:33:18;5.38;;;2.65;;
7193;SDS011;3638;48.820;9.244;2023-03-23T07:35:46;2.97;;;2.35;;
7193;SDS011;3638;48.820;9.244;2023-03-23T07:38:13;6.32;;;2.25;;
7193;SDS011;3638;48.820;9.244;2023-03-23T07:40:40;5.85;;;3.17;;
7193;SDS011;3638;48.820;9.244;2023-03-23T07:43:07;4.85;;;2.80;;
7193;SDS011;3638;48.820;9.244;2023-03-23T07:45:34;3.08;;;2.28;;
7193;SDS011;3638;48.820;9.244;2023-03-23T07:48:02;6.43;;;2.83;;
7193;SDS011;3638;48.820;9.244;2023-03-23T07:50:30;3.00;;;2.43;;
7193;SDS011;3638;48.820;9.244;2023-03-23T07:52:59;2.95;;;2.40;;
7193;SDS011;3638;48.820;9.244;2023-03-23T07:55:26;7.65;;;4.00;;
7193;SDS011;3638;48.820;9.244;2023-03-23T07:57:53;5.82;;;2.80;;
7193;SDS011;3638;48.820;9.244;2023-03-23T08:00:21;2.55;;;2.15;;
7193;SDS011;3638;48.820;9.244;2023-03-23T08:02:50;2.88;;;1.95;;
7193;SDS011;3638;48.820;9.244;2023-03-23T08:05:20;2.92;;;2.28;;
7193;SDS011;3638;48.820;9.244;2023-03-23T08:07:48;2.67;;;1.88;;
7193;SDS011;3638;48.820;9.244;2023-03-23T08:10:18;2.60;;;1.92;;
7193;SDS011;3638;48.820;9.244;2023-03-23T08:12:49;2.28;;;2.03;;
7193;SDS011;3638;48.820;9.244;2023-03-23T08:15:18;3.45;;;2.00;;
7193;SDS011;3638;48.820;9.244;2023-03-23T08:17:46;2.15;;;1.95;;
7193;SDS011;3638;48.820;9.244;2023-03-23T08:20:14;3.88;;;2.03;;
7193;SDS011;3638;48.820;9.244;2023-03-23T08:22:42;2.67;;;2.13;;
7193;SDS011;3638;48.820;9.244;2023-03-23T08:25:13;3.47;;;1.98;;
7193;SDS011;3638;48.820;9.244;2023-03-23T08:27:43;2.92;;;2.13;;
7193;SDS011;3638;48.820;9.244;2023-03-23T08:30:11;3.40;;;2.10;;
7193;SDS011;3638;48.820;9.244;2023-03-23T08:32:41;2.13;;;1.90;;
7193;SDS011;3638;48.820;9.244;2023-03-23T08:35:08;2.15;;;1.90;;
7193;SDS011;3638;48.820;9.244;2023-03-23T08:37:37;4.07;;;2.05;;
7193;SDS011;3638;48.820;9.244;2023-03-23T08:40:07;3.70;;;2.17;;
7193;SDS011;3638;48.820;9.244;2023-03-23T08:42:36;2.10;;;1.90;;
7193;SDS011;3638;48.820;9.244;2023-03-23T08:45:06;2.25;;;2.05;;
7193;SDS011;3638;48.820;9.244;2023-03-23T08:47:35;3.10;;;2.10;;
7193;SDS011;3638;48.820;9.244;2023-03-23T08:50:04;2.30;;;2.10;;
7193;SDS011;3638;48.820;9.244;2023-03-23T08:52:33;2.47;;;2.25;;
7193;SDS011;3638;48.820;9.244;2023-03-23T08:55:00;2.63;;;2.00;;
7193;SDS011;3638;48.820;9.244;2023-03-23T08:57:28;2.58;;;2.00;;
7193;SDS011;3638;48.820;9.244;2023-03-23T08:59:55;4.18;;;2.10;;
7193;SDS011;3638;48.820;9.244;2023-03-23T09:02:26;2.13;;;1.90;;
7193;SDS011;3638;48.820;9.244;2023-03-23T09:04:56;2.47;;;2.28;;
7193;SDS011;3638;48.820;9.244;2023-03-23T09:07:22;4.38;;;2.42;;
7193;SDS011;3638;48.820;9.244;2023-03-23T09:09:49;2.25;;;2.03;;
7193;SDS011;3638;48.820;9.244;2023-03-23T09:12:17;2.60;;;2.08;;
7193;SDS011;3638;48.820;9.244;2023-03-23T09:14:44;3.80;;;2.25;;
7193;SDS011;3638;48.820;9.244;2023-03-23T09:17:11;2.92;;;1.75;;
7193;SDS011;3638;48.820;9.244;2023-03-23T09:19:41;2.80;;;1.83;;
7193;SDS011;3638;48.820;9.244;2023-03-23T09:22:08;3.53;;;2.03;;
7193;SDS011;3638;48.820;9.244;2023-03-23T09:24:35;2.13;;;1.52;;
7193;SDS011;3638;48.820;9.244;2023-03-23T09:27:02;2.22;;;1.90;;
7193;SDS011;3638;48.820;9.244;2023-03-23T09:29:29;2.17;;;1.98;;
7193;SDS011;3638;48.820;9.244;2023-03-23T09:31:56;2.05;;;1.95;;
7193;SDS011;3638;48.820;9.244;2023-03-23T09:34:23;4.85;;;2.28;;
7193;SDS011;3638;48.820;9.244;2023-03-23T09:36:51;4.10;;;1.85;;
7193;SDS011;3638;48.820;9.244;2023-03-23T09:39:18;2.45;;;2.05;;
7193;SDS011;3638;48.820;9.244;2023-03-23T09:41:54;2.65;;;2.10;;
7193;SDS011;3638;48.820;9.244;2023-03-23T09:44:37;2.42;;;1.73;;
7193;SDS011;3638;48.820;9.244;2023-03-23T09:47:17;1.95;;;1.83;;
7193;SDS011;3638;48.820;9.244;2023-03-23T09:49:52;2.28;;;1.80;;
7193;SDS011;3638;48.820;9.244;2023-03-23T09:52:26;5.35;;;2.50;;
7193;SDS011;3638;48.820;9.244;2023-03-23T09:55:02;2.55;;;2.00;;
7193;SDS011;3638;48.820;9.244;2023-03-23T09:57:32;3.83;;;1.92;;
7193;SDS011;3638;48.820;9.244;2023-03-23T10:00:09;3.67;;;2.00;;
7193;SDS011;3638;48.820;9.244;2023-03-23T10:02:43;2.00;;;1.80;;
7193;SDS011;3638;48.820;9.244;2023-03-23T10:05:23;3.03;;;1.90;;
7193;SDS011;3638;48.820;9.244;2023-03-23T10:07:58;2.85;;;2.30;;
7193;SDS011;3638;48.820;9.244;2023-03-23T10:10:31;3.13;;;1.90;;
7193;SDS011;3638;48.820;9.244;2023-03-23T10:13:09;1.70;;;1.60;;
7193;SDS011;3638;48.820;9.244;2023-03-23T10:15:46;2.28;;;1.80;;
7193;SDS011;3638;48.820;9.244;2023-03-23T10:18:15;2.88;;;1.92;;
7193;SDS011;3638;48.820;9.244;2023-03-23T10:20:47;2.25;;;1.75;;
7193;SDS011;3638;48.820;9.244;2023-03-23T10:23:33;1.80;;;1.70;;
7193;SDS011;3638;48.820;9.244;2023-03-23T10:26:17;2.13;;;1.92;;
7193;SDS011;3638;48.820;9.244;2023-03-23T10:29:01;3.85;;;2.00;;
7193;SDS011;3638;48.820;9.244;2023-03-23T10:31:41;2.92;;;1.85;;
7193;SDS011;3638;48.820;9.244;2023-03-23T10:34:13;2.17;;;1.77;;
7193;SDS011;3638;48.820;9.244;2023-03-23T10:36:58;2.78;;;1.88;;
7193;SDS011;3638;48.820;9.244;2023-03-23T10:39:33;2.55;;;2.20;;
7193;SDS011;3638;48.820;9.244;2023-03-23T10:42:11;2.63;;;1.70;;
7193;SDS011;3638;48.820;9.244;2023-03-23T10:44:46;3.83;;;1.70;;
7193;SDS011;3638;48.820;9.244;2023-03-23T10:47:14;3.13;;;2.40;;
7193;SDS011;3638;48.820;9.244;2023-03-23T10:49:43;2.10;;;1.85;;
7193;SDS011;3638;48.820;9.244;2023-03-23T10:52:20;2.03;;;1.83;;
7193;SDS011;3638;48.820;9.244;2023-03-23T10:54:56;1.92;;;1.67;;
7193;SDS011;3638;48.820;9.244;2023-03-23T10:57:29;3.45;;;2.00;;
7193;SDS011;3638;48.820;9.244;2023-03-23T10:59:59;2.05;;;1.77;;
7193;SDS011;3638;48.820;9.244;2023-03-23T11:02:31;2.17;;;1.98;;
7193;SDS011;3638;48.820;9.244;2023-03-23T11:05:04;4.53;;;2.30;;
7193;SDS011;3638;48.820;9.244;2023-03-23T11:07:41;2.20;;;1.80;;
7193;SDS011;3638;48.820;9.244;2023-03-23T11:10:22;2.72;;;1.92;;
7193;SDS011;3638;48.820;9.244;2023-03-23T11:12:52;4.15;;;1.85;;
7193;SDS011;3638;48.820;9.244;2023-03-23T11:15:25;2.35;;;1.77;;
7193;SDS011;3638;48.820;9.244;2023-03-23T11:17:57;2.88;;;1.80;;
7193;SDS011;3638;48.820;9.244;2023-03-23T11:20:28;3.38;;;2.10;;
7193;SDS011;3638;48.820;9.244;2023-03-23T11:23:01;2.00;;;1.80;;
7193;SDS011;3638;48.820;9.244;2023-03-23T11:25:53;3.25;;;1.80;;
7193;SDS011;3638;48.820;9.244;2023-03-23T11:28:29;3.05;;;1.90;;
7193;SDS011;3638;48.820;9.244;2023-03-23T11:31:01;3.35;;;2.20;;
7193;SDS011;3638;48.820;9.244;2023-03-23T11:33:46;2.22;;;1.90;;
7193;SDS011;3638;48.820;9.244;2023-03-23T11:36:18;2.28;;;1.85;;
7193;SDS011;3638;48.820;9.244;2023-03-23T11:38:51;2.30;;;2.03;;
7193;SDS011;3638;48.820;9.244;2023-03-23T11:41:23;3.00;;;1.83;;
7193;SDS011;3638;48.820;9.244;2023-03-23T11:44:01;3.20;;;2.10;;
7193;SDS011;3638;48.820;9.244;2023-03-23T11:46:38;1.98;;;1.88;;
7193;SDS011;3638;48.820;9.244;2023-03-23T11:49:15;2.72;;;1.90;;
7193;SDS011;3638;48.820;9.244;2023-03-23T11:51:53;2.67;;;1.83;;
7193;SDS011;3638;48.820;9.244;2023-03-23T11:54:26;2.95;;;2.50;;
7193;SDS011;3638;48.820;9.244;2023-03-23T11:57:05;2.40;;;2.20;;
7193;SDS011;3638;48.820;9.244;2023-03-23T11:59:35;2.35;;;1.90;;
7193;SDS011;3638;48.820;9.244;2023-03-23T12:02:07;2.30;;;2.10;;
7193;SDS011;3638;48.820;9.244;2023-03-23T12:11:33;3.17;;;2.22;;
7193;SDS011;3638;48.820;9.244;2023-03-23T12:14:13;2.60;;;2.00;;
7193;SDS011;3638;48.820;9.244;2023-03-23T12:16:50;3.30;;;2.13;;
7193;SDS011;3638;48.820;9.244;2023-03-23T12:19:36;3.03;;;2.00;;
7193;SDS011;3638;48.820;9.244;2023-03-23T12:22:21;2.50;;;1.98;;
7193;SDS011;3638;48.820;9.244;2023-03-23T12:25:01;2.60;;;1.67;;
7193;SDS011;3638;48.820;9.244;2023-03-23T12:27:58;2.85;;;1.90;;
7193;SDS011;3638;48.820;9.244;2023-03-23T12:30:38;3.17;;;2.10;;
7193;SDS011;3638;48.820;9.244;2023-03-23T12:33:17;2.20;;;2.00;;
7193;SDS011;3638;48.820;9.244;2023-03-23T12:38:47;4.45;;;1.90;;
7193;SDS011;3638;48.820;9.244;2023-03-23T12:41:38;3.60;;;2.15;;
7193;SDS011;3638;48.820;9.244;2023-03-23T12:44:14;2.35;;;1.65;;
7193;SDS011;3638;48.820;9.244;2023-03-23T12:46:58;2.28;;;1.63;;
7193;SDS011;3638;48.820;9.244;2023-03-23T12:49:39;1.90;;;1.80;;
7193;SDS011;3638;48.820;9.244;2023-03-23T12:52:13;2.25;;;1.55;;
7193;SDS011;3638;48.820;9.244;2023-03-23T12:54:45;2.80;;;2.00;;
7193;SDS011;3638;48.820;9.244;2023-03-23T12:57:20;2.53;;;1.67;;
7193;SDS011;3638;48.820;9.244;2023-03-23T12:59:56;2.40;;;1.83;;
7193;SDS011;3638;48.820;9.244;2023-03-23T13:02:38;2.60;;;2.30;;
7193;SDS011;3638;48.820;9.244;2023-03-23T13:05:12;2.70;;;2.33;;
7193;SDS011;3638;48.820;9.244;2023-03-23T13:07:55;2.03;;;1.90;;
7193;SDS011;3638;48.820;9.244;2023-03-23T13:10:27;3.45;;;2.03;;
7193;SDS011;3638;48.820;9.244;2023-03-23T13:13:00;1.90;;;1.75;;
7193;SDS011;3638;48.820;9.244;2023-03-23T13:15:31;2.15;;;2.00;;
7193;SDS011;3638;48.820;9.244;2023-03-23T13:18:08;3.97;;;2.10;;
7193;SDS011;3638;48.820;9.244;2023-03-23T13:20:46;3.70;;;2.10;;
7193;SDS011;3638;48.820;9.244;2023-03-23T13:23:22;2.63;;;2.00;;
7193;SDS011;3638;48.820;9.244;2023-03-23T13:25:53;2.00;;;1.85;;
7193;SDS011;3638;48.820;9.244;2023-03-23T13:28:25;3.47;;;1.65;;
7193;SDS011;3638;48.820;9.244;2023-03-23T13:30:56;2.70;;;1.90;;
7193;SDS011;3638;48.820;9.244;2023-03-23T13:33:29;3.58;;;2.80;;
7193;SDS011;3638;48.820;9.244;2023-03-23T13:36:04;2.75;;;1.90;;
7193;SDS011;3638;48.820;9.244;2023-03-23T13:38:37;2.40;;;2.10;;
7193;SDS011;3638;48.820;9.244;2023-03-23T13:41:12;4.95;;;1.95;;
7193;SDS011;3638;48.820;9.244;2023-03-23T13:43:41;2.92;;;2.15;;
7193;SDS011;3638;48.820;9.244;2023-03-23T13:46:22;1.95;;;1.83;;
7193;SDS011;3638;48.820;9.244;2023-03-23T13:49:14;2.72;;;2.10;;
7193;SDS011;3638;48.820;9.244;2023-03-23T13:51:53;2.58;;;1.85;;
7193;SDS011;3638;48.820;9.244;2023-03-23T13:54:44;4.30;;;2.30;;
7193;SDS011;3638;48.820;9.244;2023-03-23T13:57:32;2.58;;;2.33;;
7193;SDS011;3638;48.820;9.244;2023-03-23T14:00:12;2.13;;;1.92;;
7193;SDS011;3638;48.820;9.244;2023-03-23T14:03:01;4.25;;;2.40;;
7193;SDS011;3638;48.820;9.244;2023-03-23T14:05:32;2.50;;;2.30;;
7193;SDS011;3638;48.820;9.244;2023-03-23T14:08:02;3.63;;;2.50;;
7193;SDS011;3638;48.820;9.244;2023-03-23T14:10:39;2.83;;;2.28;;
7193;SDS011;3638;48.820;9.244;2023-03-23T14:13:14;2.55;;;2.30;;
7193;SDS011;3638;48.820;9.244;2023-03-23T14:15:53;2.83;;;2.10;;
7193;SDS011;3638;48.820;9.244;2023-03-23T14:18:29;2.47;;;2.05;;
7193;SDS011;3638;48.820;9.244;2023-03-23T14:21:02;1.92;;;1.80;;
7193;SDS011;3638;48.820;9.244;2023-03-23T14:23:31;2.20;;;2.00;;
7193;SDS011;3638;48.820;9.244;2023-03-23T14:26:00;4.85;;;2.00;;
7193;SDS011;3638;48.820;9.244;2023-03-23T14:28:35;2.40;;;2.20;;
7193;SDS011;3638;48.820;9.244;2023-03-23T14:31:05;2.28;;;1.90;;
7193;SDS011;3638;48.820;9.244;2023-03-23T14:33:44;2.35;;;1.95;;
7193;SDS011;3638;48.820;9.244;2023-03-23T14:36:14;2.17;;;1.98;;
7193;SDS011;3638;48.820;9.244;2023-03-23T14:38:46;2.75;;;2.20;;
7193;SDS011;3638;48.820;9.244;2023-03-23T14:41:13;3.10;;;2.40;;
7193;SDS011;3638;48.820;9.244;2023-03-23T14:43:40;4.68;;;2.10;;
7193;SDS011;3638;48.820;9.244;2023-03-23T14:46:08;3.17;;;2.20;;
7193;SDS011;3638;48.820;9.244;2023-03-23T14:48:38;4.63;;;2.38;;
7193;SDS011;3638;48.820;9.244;2023-03-23T14:51:06;2.30;;;2.10;;
7193;SDS011;3638;48.820;9.244;2023-03-23T14:53:45;2.80;;;2.15;;
7193;SDS011;3638;48.820;9.244;2023-03-23T14:56:17;3.38;;;2.28;;
7193;SDS011;3638;48.820;9.244;2023-03-23T14:58:47;2.97;;;2.10;;
7193;SDS011;3638;48.820;9.244;2023-03-23T15:01:17;3.08;;;2.10;;
7193;SDS011;3638;48.820;9.244;2023-03-23T15:03:49;4.43;;;2.17;;
7193;SDS011;3638;48.820;9.244;2023-03-23T15:06:21;2.90;;;1.92;;
7193;SDS011;3638;48.820;9.244;2023-03-23T15:08:53;3.28;;;2.50;;
7193;SDS011;3638;48.820;9.244;2023-03-23T15:11:24;2.50;;;2.08;;
7193;SDS011;3638;48.820;9.244;2023-03-23T15:13:55;2.40;;;2.20;;
7193;SDS011;3638;48.820;9.244;2023-03-23T15:16:34;2.45;;;2.25;;
7193;SDS011;3638;48.820;9.244;2023-03-23T15:19:03;2.42;;;2.08;;
7193;SDS011;3638;48.820;9.244;2023-03-23T15:21:47;4.05;;;2.30;;
7193;SDS011;3638;48.820;9.244;2023-03-23T15:24:26;2.85;;;2.10;;
7193;SDS011;3638;48.820;9.244;2023-03-23T15:27:14;2.72;;;2.30;;
7193;SDS011;3638;48.820;9.244;2023-03-23T15:29:48;2.55;;;2.10;;
7193;SDS011;3638;48.820;9.244;2023-03-23T15:32:20;5.93;;;2.58;;
7193;SDS011;3638;48.820;9.244;2023-03-23T15:34:50;2.60;;;2.40;;
7193;SDS011;3638;48.820;9.244;2023-03-23T15:37:20;3.25;;;2.30;;
7193;SDS011;3638;48.820;9.244;2023-03-23T15:39:52;3.25;;;2.80;;
7193;SDS011;3638;48.820;9.244;2023-03-23T15:42:20;5.47;;;3.10;;
7193;SDS011;3638;48.820;9.244;2023-03-23T15:44:55;2.60;;;2.30;;
7193;SDS011;3638;48.820;9.244;2023-03-23T15:47:47;2.75;;;2.30;;
7193;SDS011;3638;48.820;9.244;2023-03-23T15:50:15;4.60;;;2.40;;
7193;SDS011;3638;48.820;9.244;2023-03-23T15:52:47;4.35;;;2.58;;
7193;SDS011;3638;48.820;9.244;2023-03-23T15:55:23;3.83;;;2.40;;